Thunder radar more information blitzortung!


Radar de pluja more information rain snow radar


Visita la nostra xarxa de llocs de meteo:

Template documentation
and downloads

And another site



No particular awareness of the weather is required.    There are no Weather-warnings

Pagina Historial Weather Underground text

Diari Resum Octubre 25, 2017 Unitats:  Mètric    Imperial   Tant
« Previous Dia
SegĂźent Dia »
Diari Setmana Mensual Anual Personalitzada
  Maxima: Minima: Media:
Temperatura: 23.6 °C 11.0 °C 18.6 °C
Punt de rosada: 14.7 °C 6.7 °C 11.9 °C
Humitat: 83 % 51 % 66 %
Wind Speed: 11.1 km/h 0.0 km/h 3.7 km/h
RĂ fegues de vent: 11.1 km/h - -
Vent:- - SSE
Pression baro: 1026.0 hPa 1022.9 hPa -
Precipitacions: 0.0 mm    
Historical Graphs
 
 
Dades de taula per Octubre 25, 2017
Temps Temperatura Punt de rosada Pression baro Vent Wind Speed RĂ fegues de vent Humitat Rainfall Rate (Hourly)
00:04 14.4 °C 7.4 °C 1023.9 hPa Calm     63 % 0.0 mm
00:05 12.0 °C 7.3 °C 1023.9 hPa Calm   1.6 km/h 73 % 0.0 mm
00:15 12.1 °C 7.2 °C 1023.9 hPa Calm     72 % 0.0 mm
00:25 12.4 °C 7.3 °C 1023.9 hPa West 1.6 km/h 3.2 km/h 71 % 0.0 mm
00:45 12.4 °C 7.3 °C 1022.9 hPa Calm   3.2 km/h 71 % 0.0 mm
00:55 12.4 °C 7.5 °C 1022.9 hPa Calm   1.6 km/h 72 % 0.0 mm
01:05 12.2 °C 7.3 °C 1022.9 hPa Calm     72 % 0.0 mm
01:15 12.1 °C 7.2 °C 1023.9 hPa Calm     72 % 0.0 mm
01:25 11.8 °C 7.1 °C 1023.9 hPa Calm     73 % 0.0 mm
01:35 11.7 °C 7.0 °C 1023.9 hPa Calm     73 % 0.0 mm
01:45 11.6 °C 6.9 °C 1023.9 hPa Calm     73 % 0.0 mm
01:55 11.6 °C 6.9 °C 1023.9 hPa WNW 3.2 km/h 3.2 km/h 73 % 0.0 mm
02:05 11.3 °C 6.8 °C 1023.9 hPa WSW 1.6 km/h 3.2 km/h 74 % 0.0 mm
02:15 11.3 °C 6.8 °C 1023.9 hPa SW 1.6 km/h 3.2 km/h 74 % 0.0 mm
02:25 11.3 °C 6.8 °C 1023.9 hPa SW 3.2 km/h 4.8 km/h 74 % 0.0 mm
02:35 11.3 °C 7.0 °C 1023.9 hPa Calm   1.6 km/h 75 % 0.0 mm
02:45 11.3 °C 7.0 °C 1023.9 hPa Calm     75 % 0.0 mm
02:55 11.3 °C 7.0 °C 1023.9 hPa Calm   1.6 km/h 75 % 0.0 mm
03:05 11.4 °C 7.1 °C 1022.9 hPa NW 1.6 km/h 3.2 km/h 75 % 0.0 mm
03:15 11.1 °C 6.8 °C 1023.9 hPa West 1.6 km/h 3.2 km/h 75 % 0.0 mm
03:25 11.1 °C 6.8 °C 1023.9 hPa West 1.6 km/h 3.2 km/h 75 % 0.0 mm
03:35 11.0 °C 6.7 °C 1023.9 hPa West 3.2 km/h 3.2 km/h 75 % 0.0 mm
03:45 11.2 °C 7.1 °C 1023.9 hPa Calm   3.2 km/h 76 % 0.0 mm
03:55 11.5 °C 7.4 °C 1023.9 hPa WSW 1.6 km/h 1.6 km/h 76 % 0.0 mm
04:05 11.8 °C 7.5 °C 1024.9 hPa WSW 1.6 km/h 3.2 km/h 75 % 0.0 mm
04:15 12.0 °C 7.7 °C 1024.9 hPa SW 1.6 km/h 3.2 km/h 75 % 0.0 mm
04:25 12.5 °C 8.2 °C 1024.9 hPa Calm   1.6 km/h 75 % 0.0 mm
04:35 13.7 °C 9.2 °C 1024.9 hPa Calm   3.2 km/h 74 % 0.0 mm
04:55 14.1 °C 9.1 °C 1026.0 hPa NE 4.8 km/h 6.4 km/h 72 % 0.0 mm
05:05 14.4 °C 9.2 °C 1026.0 hPa NE 3.2 km/h 4.8 km/h 71 % 0.0 mm
10:12 14.9 °C 9.5 °C 1026.0 hPa NNE 5.6 km/h 5.6 km/h 70 % 0.0 mm
10:17 15.3 °C 9.8 °C 1026.0 hPa NNE 5.6 km/h 5.6 km/h 70 % 0.0 mm
10:22 15.4 °C 9.9 °C 1026.0 hPa ENE 3.7 km/h 3.7 km/h 70 % 0.0 mm
10:24 15.6 °C 10.2 °C 1026.0 hPa NNE 5.6 km/h 5.6 km/h 70 % 0.0 mm
10:29 15.9 °C 10.2 °C 1026.0 hPa NE 5.6 km/h 5.6 km/h 69 % 0.0 mm
10:34 16.2 °C 10.5 °C 1026.0 hPa NE 5.6 km/h 5.6 km/h 69 % 0.0 mm
10:39 16.5 °C 10.6 °C 1026.0 hPa NNE 3.2 km/h 3.2 km/h 68 % 0.0 mm
10:44 16.6 °C 10.7 °C 1026.0 hPa NE 5.6 km/h 5.6 km/h 68 % 0.0 mm
10:49 16.6 °C 10.7 °C 1026.0 hPa NW 7.4 km/h 7.4 km/h 68 % 0.0 mm
10:54 16.9 °C 10.7 °C 1026.0 hPa NE 7.4 km/h 7.4 km/h 67 % 0.0 mm
10:59 16.8 °C 10.6 °C 1026.0 hPa NNE 9.3 km/h 9.3 km/h 67 % 0.0 mm
11:04 17.0 °C 10.6 °C 1026.0 hPa ENE 7.4 km/h 7.4 km/h 66 % 0.0 mm
11:09 17.4 °C 11.0 °C 1024.9 hPa NNE 5.6 km/h 5.6 km/h 66 % 0.0 mm
11:14 17.7 °C 11.1 °C 1024.9 hPa ENE 5.6 km/h 5.6 km/h 65 % 0.0 mm
11:19 17.8 °C 11.1 °C 1024.9 hPa NNE 5.6 km/h 5.6 km/h 65 % 0.0 mm
11:24 18.0 °C 11.1 °C 1026.0 hPa ENE 3.7 km/h 3.7 km/h 64 % 0.0 mm
11:29 18.3 °C 11.4 °C 1026.0 hPa ENE 6.1 km/h 6.1 km/h 64 % 0.0 mm
11:34 18.1 °C 11.2 °C 1026.0 hPa NNW 5.6 km/h 5.6 km/h 64 % 0.0 mm
11:39 18.5 °C 11.6 °C 1026.0 hPa NNE 3.7 km/h 3.7 km/h 64 % 0.0 mm
11:44 19.0 °C 11.6 °C 1026.0 hPa NNW 2.3 km/h 2.3 km/h 62 % 0.0 mm
11:49 19.4 °C 11.9 °C 1026.0 hPa NNE 3.7 km/h   62 % 0.0 mm
11:54 19.5 °C 12.0 °C 1026.0 hPa NW 3.7 km/h 3.7 km/h 62 % 0.0 mm
11:59 19.7 °C 12.2 °C 1026.0 hPa NNE 5.0 km/h 5.0 km/h 62 % 0.0 mm
12:04 19.8 °C 12.1 °C 1026.0 hPa NE 3.9 km/h 3.9 km/h 61 % 0.0 mm
12:09 20.2 °C 12.2 °C 1026.0 hPa SW 3.7 km/h   60 % 0.0 mm
12:14 20.2 °C 11.9 °C 1026.0 hPa NE 3.9 km/h 3.9 km/h 59 % 0.0 mm
12:19 19.9 °C 11.7 °C 1026.0 hPa ESE 7.4 km/h 7.4 km/h 59 % 0.0 mm
12:24 20.2 °C 11.7 °C 1026.0 hPa ENE 7.4 km/h 7.4 km/h 58 % 0.0 mm
12:29 20.4 °C 11.8 °C 1026.0 hPa East 5.8 km/h 5.8 km/h 58 % 0.0 mm
12:34 20.2 °C 11.7 °C 1026.0 hPa ENE 6.1 km/h 6.1 km/h 58 % 0.0 mm
12:39 20.3 °C 11.8 °C 1026.0 hPa East 3.7 km/h 3.7 km/h 58 % 0.0 mm
12:44 20.6 °C 12.1 °C 1026.0 hPa NNE 7.4 km/h 7.4 km/h 58 % 0.0 mm
12:49 20.7 °C 12.1 °C 1026.0 hPa ENE 5.6 km/h 5.6 km/h 58 % 0.0 mm
12:54 21.0 °C 12.2 °C 1026.0 hPa ESE 3.7 km/h 4.7 km/h 57 % 0.0 mm
12:59 20.9 °C 12.1 °C 1026.0 hPa NE 4.7 km/h 4.7 km/h 57 % 0.0 mm
13:04 20.9 °C 11.8 °C 1026.0 hPa ENE 7.4 km/h 7.4 km/h 56 % 0.0 mm
13:14 21.4 °C 12.0 °C 1026.0 hPa ESE 5.6 km/h 5.6 km/h 55 % 0.0 mm
13:19 21.4 °C 12.0 °C 1026.0 hPa East 5.6 km/h 5.6 km/h 55 % 0.0 mm
13:24 21.4 °C 12.0 °C 1026.0 hPa NE 7.4 km/h 7.4 km/h 55 % 0.0 mm
13:29 21.4 °C 11.7 °C 1026.0 hPa NE 7.4 km/h 7.4 km/h 54 % 0.0 mm
13:34 21.8 °C 12.1 °C 1026.0 hPa ESE 4.7 km/h 4.7 km/h 54 % 0.0 mm
13:39 21.8 °C 12.1 °C 1024.9 hPa ENE 3.7 km/h 3.7 km/h 54 % 0.0 mm
13:44 22.0 °C 12.0 °C 1024.9 hPa East 6.1 km/h 6.1 km/h 53 % 0.0 mm
13:54 22.2 °C 12.4 °C 1024.9 hPa NNW 5.6 km/h 5.6 km/h 54 % 0.0 mm
13:59 22.4 °C 12.3 °C 1024.9 hPa SE 5.6 km/h 5.6 km/h 53 % 0.0 mm
14:04 22.6 °C 12.6 °C 1024.9 hPa WNW 4.2 km/h 4.2 km/h 53 % 0.0 mm
14:09 22.5 °C 12.2 °C 1023.9 hPa ESE 5.6 km/h 5.6 km/h 52 % 0.0 mm
14:14 22.5 °C 12.2 °C 1023.9 hPa SE 7.4 km/h 7.4 km/h 52 % 0.0 mm
14:19 22.8 °C 12.7 °C 1023.9 hPa East 4.2 km/h 4.2 km/h 53 % 0.0 mm
14:24 22.6 °C 12.2 °C 1023.9 hPa NW 5.6 km/h 5.6 km/h 52 % 0.0 mm
14:29 22.8 °C 12.4 °C 1023.9 hPa ESE 7.4 km/h 7.4 km/h 52 % 0.0 mm
14:34 22.6 °C 12.6 °C 1023.9 hPa East 3.9 km/h 3.9 km/h 53 % 0.0 mm
14:39 22.8 °C 12.4 °C 1023.9 hPa SSE 6.1 km/h 6.1 km/h 52 % 0.0 mm
14:44 23.2 °C 12.8 °C 1023.9 hPa ESE 5.6 km/h 5.6 km/h 52 % 0.0 mm
14:49 23.2 °C 12.8 °C 1023.9 hPa West 5.8 km/h 5.8 km/h 52 % 0.0 mm
14:51 23.2 °C 12.8 °C 1023.9 hPa WSW 5.6 km/h 5.6 km/h 52 % 0.0 mm
14:56 23.5 °C 13.1 °C 1023.9 hPa ESE 3.9 km/h 3.9 km/h 52 % 0.0 mm
15:01 23.4 °C 12.7 °C 1023.9 hPa SSE 7.4 km/h 7.4 km/h 51 % 0.0 mm
15:06 23.4 °C 12.7 °C 1023.9 hPa ESE 7.4 km/h 7.4 km/h 51 % 0.0 mm
15:11 23.1 °C 12.4 °C 1023.9 hPa ESE 7.4 km/h 7.4 km/h 51 % 0.0 mm
15:16 23.1 °C 12.4 °C 1023.9 hPa ESE 3.7 km/h 3.9 km/h 51 % 0.0 mm
15:21 23.2 °C 12.5 °C 1023.9 hPa East 5.6 km/h 5.6 km/h 51 % 0.0 mm
15:31 23.3 °C 12.6 °C 1023.9 hPa East 5.8 km/h 5.8 km/h 51 % 0.0 mm
15:36 23.3 °C 12.6 °C 1023.9 hPa East 7.4 km/h 7.4 km/h 51 % 0.0 mm
15:41 23.3 °C 12.6 °C 1024.9 hPa South 5.6 km/h 5.6 km/h 51 % 0.0 mm
15:46 23.4 °C 12.7 °C 1024.9 hPa ESE 7.4 km/h 7.4 km/h 51 % 0.0 mm
15:51 23.3 °C 12.6 °C 1024.9 hPa South 7.4 km/h 7.4 km/h 51 % 0.0 mm
15:56 23.4 °C 12.7 °C 1023.9 hPa East 5.0 km/h 5.0 km/h 51 % 0.0 mm
16:01 23.6 °C 12.9 °C 1023.9 hPa ENE 2.3 km/h   51 % 0.0 mm
16:06 23.4 °C 12.7 °C 1023.9 hPa ESE 9.3 km/h 9.3 km/h 51 % 0.0 mm
16:11 23.5 °C 12.8 °C 1023.9 hPa SE 5.6 km/h 5.6 km/h 51 % 0.0 mm
16:16 23.6 °C 12.9 °C 1023.9 hPa ENE 7.4 km/h 7.4 km/h 51 % 0.0 mm
16:21 23.3 °C 12.9 °C 1023.9 hPa SW 9.3 km/h 9.3 km/h 52 % 0.0 mm
16:26 23.4 °C 13.3 °C 1023.9 hPa ENE 5.8 km/h 5.8 km/h 53 % 0.0 mm
16:31 23.3 °C 13.2 °C 1023.9 hPa ESE 9.5 km/h 9.5 km/h 53 % 0.0 mm
16:36 23.1 °C 13.3 °C 1023.9 hPa ENE 11.1 km/h 11.1 km/h 54 % 0.0 mm
16:41 23.1 °C 13.6 °C 1023.9 hPa NNE 5.6 km/h 5.6 km/h 55 % 0.0 mm
16:46 23.0 °C 13.7 °C 1023.9 hPa East 9.5 km/h 9.5 km/h 56 % 0.0 mm
16:51 22.8 °C 13.6 °C 1023.9 hPa SE 11.1 km/h 11.1 km/h 56 % 0.0 mm
16:56 22.8 °C 13.8 °C 1023.9 hPa ESE 9.3 km/h 9.3 km/h 57 % 0.0 mm
17:01 22.6 °C 13.9 °C 1023.9 hPa East 9.3 km/h 9.3 km/h 58 % 0.0 mm
17:06 22.6 °C 13.9 °C 1023.9 hPa East 9.3 km/h 9.3 km/h 58 % 0.0 mm
17:11 22.5 °C 14.1 °C 1023.9 hPa ENE 11.1 km/h 11.1 km/h 59 % 0.0 mm
17:16 22.3 °C 13.9 °C 1023.9 hPa ESE 9.3 km/h 9.3 km/h 59 % 0.0 mm
17:21 22.2 °C 14.1 °C 1023.9 hPa ESE 10.0 km/h 10.0 km/h 60 % 0.0 mm
17:26 22.2 °C 14.3 °C 1023.9 hPa ESE 9.3 km/h 9.3 km/h 61 % 0.0 mm
17:31 22.2 °C 14.3 °C 1023.9 hPa ESE 9.3 km/h 9.3 km/h 61 % 0.0 mm
17:36 22.1 °C 14.2 °C 1023.9 hPa SE 9.3 km/h 9.3 km/h 61 % 0.0 mm
17:41 22.1 °C 14.5 °C 1023.9 hPa SE 5.8 km/h 5.8 km/h 62 % 0.0 mm
17:46 22.1 °C 14.5 °C 1023.9 hPa East 7.4 km/h 7.4 km/h 62 % 0.0 mm
17:51 22.0 °C 14.6 °C 1023.9 hPa East 6.1 km/h 6.1 km/h 63 % 0.0 mm
17:56 22.0 °C 14.6 °C 1023.9 hPa ESE 7.9 km/h 7.9 km/h 63 % 0.0 mm
18:01 22.0 °C 14.6 °C 1023.9 hPa SW 2.3 km/h 2.3 km/h 63 % 0.0 mm
18:06 22.3 °C 14.7 °C 1023.9 hPa West 3.7 km/h   62 % 0.0 mm
18:11 22.3 °C 14.7 °C 1023.9 hPa WSW 1.9 km/h 2.3 km/h 62 % 0.0 mm
18:21 22.3 °C 14.7 °C 1023.9 hPa NW 3.7 km/h 3.7 km/h 62 % 0.0 mm
18:26 22.1 °C 14.5 °C 1022.9 hPa South 3.7 km/h 3.7 km/h 62 % 0.0 mm
18:31 21.9 °C 14.3 °C 1022.9 hPa NW 3.7 km/h 3.7 km/h 62 % 0.0 mm
18:36 21.5 °C 14.4 °C 1022.9 hPa NNE 3.7 km/h   64 % 0.0 mm
18:41 21.3 °C 14.2 °C 1023.9 hPa NNE 2.6 km/h 2.6 km/h 64 % 0.0 mm
18:46 21.1 °C 14.3 °C 1023.9 hPa NNE 3.9 km/h   65 % 0.0 mm
18:51 20.8 °C 14.0 °C 1023.9 hPa SW 5.6 km/h 5.6 km/h 65 % 0.0 mm
18:56 20.8 °C 14.0 °C 1023.9 hPa West 1.9 km/h   65 % 0.0 mm
19:01 20.6 °C 13.8 °C 1023.9 hPa West 3.9 km/h 3.9 km/h 65 % 0.0 mm
19:06 20.4 °C 13.6 °C 1023.9 hPa SW 3.7 km/h 3.7 km/h 65 % 0.0 mm
19:11 20.3 °C 13.5 °C 1023.9 hPa WSW 2.3 km/h   65 % 0.0 mm
19:16 20.1 °C 13.3 °C 1023.9 hPa WSW 3.7 km/h 3.7 km/h 65 % 0.0 mm
19:21 19.9 °C 13.6 °C 1023.9 hPa West 2.6 km/h 2.6 km/h 67 % 0.0 mm
19:26 19.8 °C 13.5 °C 1023.9 hPa WSW 4.2 km/h 4.2 km/h 67 % 0.0 mm
19:31 19.7 °C 13.4 °C 1023.9 hPa WSW 3.7 km/h 3.7 km/h 67 % 0.0 mm
19:36 19.5 °C 13.4 °C 1023.9 hPa NW 1.9 km/h   68 % 0.0 mm
19:41 19.4 °C 13.6 °C 1024.9 hPa Calm     69 % 0.0 mm
19:46 19.2 °C 13.6 °C 1024.9 hPa Calm     70 % 0.0 mm
19:51 19.0 °C 13.4 °C 1024.9 hPa Calm     70 % 0.0 mm
19:56 18.9 °C 13.7 °C 1024.9 hPa Calm     72 % 0.0 mm
20:01 18.8 °C 13.7 °C 1024.9 hPa WSW 3.5 km/h   72 % 0.0 mm
20:06 18.7 °C 13.6 °C 1024.9 hPa WSW 2.3 km/h 2.3 km/h 72 % 0.0 mm
20:11 18.6 °C 13.4 °C 1026.0 hPa WSW 3.7 km/h 3.7 km/h 72 % 0.0 mm
20:16 18.5 °C 13.6 °C 1026.0 hPa Calm     73 % 0.0 mm
20:21 18.4 °C 13.7 °C 1026.0 hPa NW 1.9 km/h 1.9 km/h 74 % 0.0 mm
20:26 18.3 °C 13.6 °C 1026.0 hPa NW 1.9 km/h   74 % 0.0 mm
20:31 18.3 °C 13.6 °C 1026.0 hPa Calm     74 % 0.0 mm
20:36 18.2 °C 13.5 °C 1026.0 hPa Calm     74 % 0.0 mm
20:41 18.1 °C 13.4 °C 1026.0 hPa Calm     74 % 0.0 mm
20:46 18.1 °C 13.6 °C 1026.0 hPa Calm     75 % 0.0 mm
20:51 18.0 °C 13.3 °C 1026.0 hPa Calm     74 % 0.0 mm
20:56 17.9 °C 13.4 °C 1026.0 hPa Calm     75 % 0.0 mm
21:01 17.9 °C 13.4 °C 1026.0 hPa Calm     75 % 0.0 mm
21:06 17.7 °C 13.4 °C 1026.0 hPa NW 1.9 km/h 1.9 km/h 76 % 0.0 mm
21:11 17.6 °C 13.3 °C 1026.0 hPa Calm     76 % 0.0 mm
21:16 17.5 °C 13.0 °C 1026.0 hPa NW 1.9 km/h   75 % 0.0 mm
21:21 17.4 °C 13.1 °C 1026.0 hPa Calm     76 % 0.0 mm
21:26 17.4 °C 13.1 °C 1026.0 hPa Calm     76 % 0.0 mm
21:31 17.3 °C 13.2 °C 1026.0 hPa Calm     77 % 0.0 mm
21:36 17.2 °C 13.1 °C 1026.0 hPa Calm     77 % 0.0 mm
21:41 17.2 °C 13.1 °C 1026.0 hPa Calm     77 % 0.0 mm
21:46 17.1 °C 13.1 °C 1026.0 hPa Calm     77 % 0.0 mm
21:51 17.0 °C 12.9 °C 1026.0 hPa Calm     77 % 0.0 mm
21:56 16.9 °C 13.2 °C 1026.0 hPa Calm     79 % 0.0 mm
22:01 16.8 °C 13.1 °C 1026.0 hPa Calm     79 % 0.0 mm
22:06 16.8 °C 13.1 °C 1026.0 hPa Calm     79 % 0.0 mm
22:11 16.8 °C 13.1 °C 1026.0 hPa Calm     79 % 0.0 mm
22:16 16.8 °C 13.1 °C 1026.0 hPa Calm     79 % 0.0 mm
22:21 16.7 °C 13.2 °C 1026.0 hPa Calm     80 % 0.0 mm
22:26 16.6 °C 12.9 °C 1026.0 hPa Calm     79 % 0.0 mm
22:31 16.6 °C 13.1 °C 1026.0 hPa NW 1.9 km/h   80 % 0.0 mm
22:36 16.6 °C 13.1 °C 1026.0 hPa WNW 3.7 km/h 3.7 km/h 80 % 0.0 mm
22:41 16.6 °C 13.1 °C 1024.9 hPa WNW 1.9 km/h   80 % 0.0 mm
23:08 16.1 °C 13.0 °C 1026.0 hPa Calm     82 % 0.0 mm
23:13 16.0 °C 12.9 °C 1026.0 hPa Calm     82 % 0.0 mm
23:18 15.9 °C 12.8 °C 1026.0 hPa Calm     82 % 0.0 mm
23:23 15.9 °C 12.8 °C 1026.0 hPa Calm     82 % 0.0 mm
23:28 15.8 °C 12.7 °C 1026.0 hPa Calm     82 % 0.0 mm
23:33 15.7 °C 12.6 °C 1026.0 hPa Calm     82 % 0.0 mm
23:38 15.6 °C 12.7 °C 1026.0 hPa Calm     83 % 0.0 mm
23:43 15.6 °C 12.7 °C 1026.0 hPa Calm     83 % 0.0 mm
23:48 15.5 °C 12.6 °C 1026.0 hPa Calm     83 % 0.0 mm
23:53 15.5 °C 12.6 °C 1026.0 hPa Calm     83 % 0.0 mm
23:58 15.3 °C 12.4 °C 1026.0 hPa Calm     83 % 0.0 mm
Meteo Sesrovires
Elogis d' Weather Underground - 3.5 mb

Guio original per  Jim McMurry - jmcmurry@mwt.net Adaptat per a la plantilla per  Wim van der Kuil - Leuven-Template.eu

Trobareu la nostra informacio del temps tambe a:

Weather Underground

AWEKAS